Time;durP1;ratioP1;P1;durP2;ratioP2;P2;SDS_P1;SDS_P2;PMS_P1;PMS_P2;Temp;Humidity;BMP_temperature;BMP_pressure;BME280_temperature;BME280_humidity;BME280_pressure;Samples;Min_cycle;Max_cycle;Signal;HPM_P1;HPM_P2
2023/10/14 00:01:25;;;;;;;;;1.00;1.00;;;;;27.20;43.44;100872.47;4807788;29;45414;-75
2023/10/14 00:03:51;;;;;;;;;1.00;1.00;;;;;27.22;43.42;100884.59;4811109;29;46181;-75
2023/10/14 00:06:18;;;;;;;;;2.00;2.00;;;;;27.23;42.63;100896.91;4826067;29;45234;-75
2023/10/14 00:08:57;;;;;;;;;1.67;1.33;;;;;27.18;42.86;100902.91;4823509;29;45418;-76
2023/10/14 00:11:35;;;;;;;;;3.00;1.00;;;;;27.15;43.25;100903.31;4807606;29;45399;-76
2023/10/14 00:14:09;;;;;;;;;2.00;1.00;;;;;27.22;43.70;100908.63;4807547;29;46374;-75
2023/10/14 00:16:36;;;;;;;;;2.00;2.00;;;;;27.20;42.87;100915.22;4807532;29;45422;-76
2023/10/14 00:19:04;;;;;;;;;1.33;1.00;;;;;27.22;42.93;100921.19;4807401;29;45328;-75
2023/10/14 00:21:35;;;;;;;;;2.00;1.00;;;;;27.22;43.01;100934.53;4807371;29;45506;-76
2023/10/14 00:24:03;;;;;;;;;2.00;2.00;;;;;27.16;42.80;100937.03;4807365;29;46055;-76
2023/10/14 00:26:29;;;;;;;;;1.67;1.00;;;;;27.13;43.26;100936.63;4807398;29;45363;-75
2023/10/14 00:31:40;;;;;;;;;1.00;1.00;;;;;27.18;43.00;100966.19;4807367;29;45491;-76
2023/10/14 00:34:06;;;;;;;;;2.00;1.00;;;;;27.10;42.71;100964.53;4806963;29;46164;-76
2023/10/14 00:36:31;;;;;;;;;1.00;1.00;;;;;27.19;43.25;100983.84;4807284;29;45414;-76
2023/10/14 00:38:57;;;;;;;;;1.00;1.00;;;;;27.21;42.65;100994.31;4807440;29;45840;-76
2023/10/14 00:41:26;;;;;;;;;1.00;1.00;;;;;27.17;43.19;100993.91;4807378;29;45371;-76
2023/10/14 00:43:53;;;;;;;;;1.00;1.00;;;;;27.18;43.23;100996.38;4806309;29;47080;-75
2023/10/14 00:46:23;;;;;;;;;3.33;2.00;;;;;27.20;42.51;101006.00;4807202;29;45469;-76
2023/10/14 00:48:58;;;;;;;;;2.00;2.00;;;;;27.20;43.15;101011.34;4806876;29;45343;-75
2023/10/14 00:51:26;;;;;;;;;1.00;1.00;;;;;27.17;43.00;101009.94;4807049;29;45432;-75
2023/10/14 00:53:52;;;;;;;;;2.00;2.00;;;;;27.17;42.66;101024.09;4806963;29;46282;-75
2023/10/14 00:56:20;;;;;;;;;2.00;1.00;;;;;27.10;43.02;101011.78;4806942;29;45378;-75
2023/10/14 00:58:50;;;;;;;;;2.67;1.00;;;;;27.10;42.45;101017.13;4807115;29;45389;-75
2023/10/14 01:01:17;;;;;;;;;1.00;1.00;;;;;27.18;42.40;101036.44;4806517;29;45512;-75
2023/10/14 01:03:43;;;;;;;;;1.00;1.00;;;;;27.17;42.81;101024.09;4809730;29;46107;-75
2023/10/14 01:06:22;;;;;;;;;3.33;0.67;;;;;27.09;42.22;101023.50;4825093;29;45306;-75
2023/10/14 01:08:52;;;;;;;;;1.00;1.00;;;;;27.17;42.31;101033.97;4821995;29;45326;-76
2023/10/14 01:11:17;;;;;;;;;0.33;0.33;;;;;27.06;42.15;101027.41;4806744;29;45412;-75
2023/10/14 01:13:44;;;;;;;;;0.00;0.00;;;;;27.17;42.87;101049.97;4806772;29;46271;-76
2023/10/14 01:16:10;;;;;;;;;2.00;0.67;;;;;27.06;42.84;101030.09;4806581;29;45858;-76
2023/10/14 01:18:38;;;;;;;;;1.33;1.00;;;;;27.17;42.23;101058.00;4806865;29;45387;-76
2023/10/14 01:21:03;;;;;;;;;1.00;1.00;;;;;27.17;42.94;101060.66;4806649;29;45337;-74
2023/10/14 01:23:28;;;;;;;;;0.67;0.67;;;;;27.17;42.21;101060.66;4806549;29;45625;-75
2023/10/14 01:25:54;;;;;;;;;1.00;1.00;;;;;27.11;42.95;101050.81;4806789;29;45463;-75
2023/10/14 01:28:29;;;;;;;;;2.00;1.00;;;;;27.16;42.53;101065.22;4806852;29;45449;-74
2023/10/14 01:33:55;;;;;;;;;1.00;1.00;;;;;27.07;42.71;101067.25;4806465;29;45307;-74
2023/10/14 01:36:24;;;;;;;;;1.00;1.00;;;;;27.05;42.19;101057.81;4806449;29;45469;-75
2023/10/14 01:38:59;;;;;;;;;2.00;1.00;;;;;27.13;42.16;101068.31;4806437;29;45271;-75
2023/10/14 01:41:25;;;;;;;;;3.00;1.00;;;;;27.14;42.12;101061.91;4806422;29;45457;-75
2023/10/14 01:43:52;;;;;;;;;2.00;0.67;;;;;27.06;42.29;101070.94;4806293;29;47058;-73
2023/10/14 01:46:18;;;;;;;;;2.00;2.00;;;;;27.06;42.26;101062.94;4805926;29;45406;-74
2023/10/14 01:48:44;;;;;;;;;1.00;0.33;;;;;27.08;41.87;101078.75;4806557;29;45377;-74
2023/10/14 01:51:10;;;;;;;;;0.00;0.00;;;;;27.12;41.70;101087.16;4806331;29;45432;-74
2023/10/14 01:53:38;;;;;;;;;3.00;1.00;;;;;27.01;41.89;101075.28;4806254;29;46452;-75
2023/10/14 01:56:06;;;;;;;;;0.00;0.00;;;;;27.05;41.92;101089.84;4806294;29;45426;-74
2023/10/14 01:58:36;;;;;;;;;1.00;1.00;;;;;27.09;42.31;101099.06;4806405;29;45351;-74
2023/10/14 02:03:48;;;;;;;;;0.67;0.67;;;;;27.11;41.86;101123.75;4808289;29;45303;-75
2023/10/14 02:06:19;;;;;;;;;1.00;1.00;;;;;26.84;42.15;101089.06;4824360;29;45488;-74
2023/10/14 02:08:47;;;;;;;;;1.00;1.00;;;;;27.12;41.67;101133.38;4821474;29;45446;-75
2023/10/14 02:11:16;;;;;;;;;1.33;0.33;;;;;27.12;42.22;101135.22;4805973;29;45424;-75
2023/10/14 02:13:42;;;;;;;;;0.33;0.33;;;;;27.12;41.36;101132.56;4805645;29;45325;-75
2023/10/14 02:16:07;;;;;;;;;1.00;1.00;;;;;27.12;41.48;101140.56;4805990;29;45387;-74
2023/10/14 02:18:36;;;;;;;;;1.00;1.00;;;;;27.11;41.64;101137.09;4806100;29;45521;-75
2023/10/14 02:21:06;;;;;;;;;0.67;0.67;;;;;27.10;41.94;101130.09;4806048;29;45457;-75
2023/10/14 02:23:46;;;;;;;;;0.00;0.00;;;;;27.10;41.39;101132.78;4805918;29;47048;-75
2023/10/14 02:26:22;;;;;;;;;1.33;1.00;;;;;27.10;41.71;101139.97;4806008;29;45518;-75
2023/10/14 02:28:49;;;;;;;;;0.00;0.00;;;;;27.03;41.33;101123.97;4805736;29;45412;-75
2023/10/14 02:31:29;;;;;;;;;1.00;1.00;;;;;26.79;41.37;101094.19;4805935;29;45291;-74
2023/10/14 02:34:08;;;;;;;;;1.00;0.67;;;;;27.02;41.58;101128.47;4805674;29;46947;-74
2023/10/14 02:36:51;;;;;;;;;1.00;1.00;;;;;27.03;42.05;101129.28;4805891;29;45428;-75
2023/10/14 02:39:22;;;;;;;;;2.33;1.00;;;;;27.08;41.31;101137.50;4805831;29;45479;-74
2023/10/14 02:41:58;;;;;;;;;1.00;0.00;;;;;27.07;41.68;101139.34;4805808;29;45401;-76
2023/10/14 02:44:33;;;;;;;;;1.00;0.00;;;;;27.07;41.27;101144.69;4805194;29;47236;-74
2023/10/14 02:47:05;;;;;;;;;2.00;0.00;;;;;27.09;41.24;101149.00;4805629;29;45354;-74
2023/10/14 02:49:39;;;;;;;;;1.33;1.00;;;;;27.09;41.37;101151.69;4804602;29;45393;-74
2023/10/14 02:52:09;;;;;;;;;3.33;2.00;;;;;27.08;41.79;101161.53;4805559;29;45393;-75
2023/10/14 02:54:36;;;;;;;;;0.00;0.00;;;;;27.07;41.91;101173.25;4805662;29;45424;-76
2023/10/14 02:57:45;;;;;;;;;0.00;0.00;;;;;27.07;41.24;101178.56;4805213;29;45408;-77
2023/10/14 02:59:52;;;;;;;;;1.00;1.00;;;;;27.05;41.92;101183.31;4804999;29;45355;-76
2023/10/14 03:07:31;;;;;;;;;1.67;0.00;;;;;27.07;41.17;101194.59;4826803;29;45422;-75
2023/10/14 03:12:49;;;;;;;;;1.00;1.00;;;;;27.01;41.55;101198.09;4808285;29;45333;-75
2023/10/14 03:15:20;;;;;;;;;1.00;0.67;;;;;27.06;41.49;101215.13;4808447;29;47264;-76
2023/10/14 03:17:52;;;;;;;;;2.00;1.00;;;;;27.05;41.73;101218.03;4808507;29;45366;-75
2023/10/14 03:23:01;;;;;;;;;1.00;1.00;;;;;27.05;41.59;101223.38;4808442;29;45375;-76
2023/10/14 03:25:27;;;;;;;;;2.00;1.00;;;;;26.95;41.92;101213.94;4808302;29;46160;-76
2023/10/14 03:28:12;;;;;;;;;0.00;0.00;;;;;27.06;41.78;101230.34;4808075;29;45385;-75
2023/10/14 03:30:40;;;;;;;;;1.00;0.00;;;;;27.05;41.74;101234.88;4808444;29;45383;-74
2023/10/14 03:33:12;;;;;;;;;0.00;0.00;;;;;27.06;41.70;101225.03;4808858;29;45476;-76
2023/10/14 03:35:41;;;;;;;;;2.33;0.33;;;;;27.06;41.25;101233.81;4808083;29;47183;-76
2023/10/14 03:38:55;;;;;;;;;2.00;1.00;;;;;27.05;40.96;101224.19;4808213;29;45350;-76
2023/10/14 03:46:36;;;;;;;;;0.00;0.00;;;;;27.04;41.25;101248.41;4824051;29;45953;-76
2023/10/14 03:49:20;;;;;;;;;0.33;0.33;;;;;27.02;41.42;101240.63;4824175;29;45383;-75
2023/10/14 03:51:45;;;;;;;;;2.33;1.00;;;;;27.03;41.02;101247.63;4824552;29;45442;-75
2023/10/14 03:54:13;;;;;;;;;2.00;0.33;;;;;27.01;41.47;101238.97;4824284;29;45363;-76
2023/10/14 03:56:45;;;;;;;;;1.00;1.00;;;;;26.93;41.46;101236.50;4823767;29;47281;-76
2023/10/14 03:59:12;;;;;;;;;1.00;1.00;;;;;26.91;41.03;101225.19;4823907;29;45397;-76
2023/10/14 04:04:20;;;;;;;;;0.67;0.67;;;;;27.02;41.18;101253.97;4824157;29;45586;-75
2023/10/14 04:09:36;;;;;;;;;1.00;1.00;;;;;26.82;40.94;101236.09;4823808;29;45387;-76
2023/10/14 04:12:07;;;;;;;;;1.67;1.00;;;;;27.00;41.00;101258.69;4823975;29;45342;-74
2023/10/14 04:14:35;;;;;;;;;2.00;0.67;;;;;26.95;41.16;101253.97;4824038;29;45543;-75
2023/10/14 04:17:10;;;;;;;;;2.00;1.67;;;;;27.00;41.32;101264.03;4822890;29;46208;-75
2023/10/14 04:19:44;;;;;;;;;0.67;0.67;;;;;26.99;41.28;101259.72;4823972;29;45397;-76
2023/10/14 04:24:50;;;;;;;;;0.00;0.00;;;;;26.99;41.42;101269.56;4807391;29;45443;-76
2023/10/14 04:29:58;;;;;;;;;1.00;1.00;;;;;26.94;41.23;101273.69;4807630;29;45361;-76
2023/10/14 04:32:27;;;;;;;;;0.00;0.00;;;;;26.91;41.38;101268.75;4807424;29;45401;-76
2023/10/14 04:34:57;;;;;;;;;3.00;1.00;;;;;26.98;40.72;101273.28;4807467;29;45328;-75
2023/10/14 04:37:27;;;;;;;;;0.67;0.00;;;;;26.98;41.41;101275.94;4806139;29;46847;-76
2023/10/14 04:39:58;;;;;;;;;1.33;1.00;;;;;26.99;41.50;101280.25;4807043;29;45373;-76
2023/10/14 04:42:36;;;;;;;;;1.00;0.00;;;;;26.92;41.57;101270.41;4807412;29;45334;-76
2023/10/14 04:45:03;;;;;;;;;0.00;0.00;;;;;26.97;40.92;101283.13;4807368;29;45440;-76
2023/10/14 04:47:37;;;;;;;;;0.33;0.33;;;;;26.94;41.50;101280.84;4807124;29;46467;-76
2023/10/14 04:50:14;;;;;;;;;1.00;1.00;;;;;26.89;40.88;101278.81;4807301;29;45442;-76
2023/10/14 04:52:48;;;;;;;;;1.33;0.67;;;;;26.97;41.29;101291.13;4807346;29;45367;-75
2023/10/14 04:55:28;;;;;;;;;1.00;1.00;;;;;26.87;40.78;101280.88;4806871;29;45364;-75
2023/10/14 04:58:14;;;;;;;;;1.00;1.00;;;;;26.98;41.28;101303.47;4806828;29;47308;-75
2023/10/14 05:00:43;;;;;;;;;0.00;0.00;;;;;26.98;40.71;101295.47;4806817;29;45448;-75
2023/10/14 05:03:19;;;;;;;;;1.00;1.00;;;;;26.97;41.28;101293.81;4807112;29;45321;-76
2023/10/14 05:05:46;;;;;;;;;0.67;0.00;;;;;26.98;40.73;101297.31;4825253;29;45428;-75
2023/10/14 05:08:21;;;;;;;;;2.00;0.00;;;;;26.72;40.72;101260.53;4824685;29;46479;-76
2023/10/14 05:10:50;;;;;;;;;1.00;0.00;;;;;26.97;40.83;101307.16;4806756;29;45275;-77
2023/10/14 05:13:16;;;;;;;;;3.00;0.00;;;;;26.90;40.76;101288.47;4807093;29;45881;-75
2023/10/14 05:15:45;;;;;;;;;2.00;0.00;;;;;26.87;40.71;101286.19;4806931;29;45427;-75
2023/10/14 05:18:17;;;;;;;;;1.00;1.00;;;;;26.85;41.27;101293.59;4806631;29;47532;-76
2023/10/14 05:23:30;;;;;;;;;1.33;1.00;;;;;26.94;40.72;101304.88;4806393;29;45331;-76
2023/10/14 05:25:59;;;;;;;;;1.00;1.00;;;;;26.95;41.14;101299.38;4806902;29;45306;-76
2023/10/14 05:28:35;;;;;;;;;2.00;0.00;;;;;26.90;40.73;101301.81;4806124;29;47527;-76
2023/10/14 05:31:08;;;;;;;;;1.00;0.00;;;;;26.92;41.00;101309.63;4806420;29;45449;-76
2023/10/14 05:33:37;;;;;;;;;0.67;0.00;;;;;26.83;40.78;101296.44;4806605;29;45287;-76
2023/10/14 05:36:05;;;;;;;;;0.00;0.00;;;;;26.94;40.66;101326.25;4806581;29;45394;-75
2023/10/14 05:38:30;;;;;;;;;0.00;0.00;;;;;26.96;40.79;101330.34;4806177;29;46242;-76
2023/10/14 05:40:58;;;;;;;;;0.00;0.00;;;;;26.96;40.65;101330.34;4806554;29;45370;-75
2023/10/14 05:43:24;;;;;;;;;1.00;1.00;;;;;26.96;40.84;101327.69;4806661;29;45374;-75
2023/10/14 05:45:53;;;;;;;;;1.33;1.33;;;;;26.96;40.75;101335.69;4806530;29;45509;-74
2023/10/14 05:48:27;;;;;;;;;0.00;0.00;;;;;26.91;41.01;101327.47;4806280;29;46407;-75
2023/10/14 05:50:54;;;;;;;;;2.00;0.00;;;;;26.96;41.41;101342.88;4806205;29;45413;-75
2023/10/14 05:53:20;;;;;;;;;2.00;0.00;;;;;26.87;40.68;101330.75;4806177;29;45387;-74
2023/10/14 05:55:47;;;;;;;;;0.00;0.00;;;;;26.95;41.37;101343.94;4806376;29;45414;-75
2023/10/14 05:58:13;;;;;;;;;2.00;0.00;;;;;26.95;40.62;101346.59;4806117;29;46416;-74
2023/10/14 06:00:41;;;;;;;;;0.00;0.00;;;;;26.87;41.04;101339.59;4805834;29;45769;-74
2023/10/14 06:03:11;;;;;;;;;0.00;0.00;;;;;26.95;41.29;101347.44;4806501;29;45436;-75
2023/10/14 06:05:37;;;;;;;;;1.00;1.00;;;;;26.84;41.40;101338.16;4822966;29;45282;-74
2023/10/14 06:08:16;;;;;;;;;2.33;0.67;;;;;26.95;41.26;101352.75;4824402;29;46164;-76
2023/10/14 06:10:42;;;;;;;;;2.00;1.00;;;;;26.94;41.37;101359.13;4806729;29;45434;-76
2023/10/14 06:13:09;;;;;;;;;1.00;0.00;;;;;26.95;40.90;101362.63;4814001;29;45481;-74
2023/10/14 06:15:39;;;;;;;;;1.33;1.00;;;;;26.94;41.30;101369.78;4824068;29;45331;-74
2023/10/14 06:18:05;;;;;;;;;2.33;1.00;;;;;26.95;41.75;101378.63;4823019;29;46311;-74
2023/10/14 06:20:35;;;;;;;;;0.00;0.00;;;;;26.90;41.65;101368.56;4822194;29;45859;-74
2023/10/14 06:23:00;;;;;;;;;0.00;0.00;;;;;26.88;41.52;101372.47;4824397;29;45464;-72
2023/10/14 06:25:29;;;;;;;;;3.33;1.00;;;;;26.97;41.52;101384.59;4824600;29;45264;-74
2023/10/14 06:27:54;;;;;;;;;1.00;1.00;;;;;26.92;42.26;101381.69;4821341;29;45492;-73
2023/10/14 06:30:20;;;;;;;;;1.00;1.00;;;;;27.00;42.22;101392.22;4823776;29;45406;-75
2023/10/14 06:33:04;;;;;;;;;2.00;1.00;;;;;26.95;42.08;101391.97;4823879;29;45521;-76
2023/10/14 06:35:33;;;;;;;;;1.00;1.00;;;;;27.01;42.05;101404.50;4822617;29;45429;-74
2023/10/14 06:38:00;;;;;;;;;0.00;0.00;;;;;26.98;41.76;101396.09;4824056;29;45464;-74
2023/10/14 06:40:32;;;;;;;;;0.33;0.33;;;;;27.03;41.91;101412.34;4824096;29;45231;-73
2023/10/14 06:43:00;;;;;;;;;0.67;0.67;;;;;27.03;42.03;101412.34;4827398;29;45337;-74
2023/10/14 06:45:31;;;;;;;;;1.00;1.00;;;;;26.99;41.48;101413.75;4826975;29;45223;-74
2023/10/14 06:48:03;;;;;;;;;0.00;0.00;;;;;27.04;41.98;101430.00;4825775;29;47345;-74
2023/10/14 06:50:29;;;;;;;;;2.00;1.00;;;;;27.06;41.63;101430.63;4826338;29;45409;-74
2023/10/14 06:53:07;;;;;;;;;0.00;0.00;;;;;27.02;41.54;101419.53;4827312;29;45507;-74
2023/10/14 06:55:37;;;;;;;;;1.33;0.00;;;;;27.09;41.07;101437.44;4827106;29;45254;-74
2023/10/14 06:58:18;;;;;;;;;1.00;1.00;;;;;27.09;41.49;101448.13;4826915;29;47224;-74
2023/10/14 07:00:44;;;;;;;;;0.00;0.00;;;;;27.07;40.85;101441.09;4826770;29;45353;-74
2023/10/14 07:03:12;;;;;;;;;3.00;1.00;;;;;27.09;41.45;101448.13;4827231;29;45333;-74
2023/10/14 07:05:48;;;;;;;;;1.00;1.00;;;;;27.09;41.00;101462.25;4826666;29;45379;-74
2023/10/14 07:08:14;;;;;;;;;1.33;1.00;;;;;27.07;40.77;101459.81;4826762;29;47124;-74
2023/10/14 07:10:40;;;;;;;;;2.00;1.00;;;;;27.07;40.57;101462.47;4809379;29;45461;-74
2023/10/14 07:13:06;;;;;;;;;0.00;0.00;;;;;27.07;40.52;101467.81;4808627;29;45413;-74
2023/10/14 07:15:38;;;;;;;;;0.00;0.00;;;;;27.05;40.59;101471.72;4808677;29;45389;-74
2023/10/14 07:18:04;;;;;;;;;0.00;0.00;;;;;27.07;40.58;101486.50;4808176;29;46153;-74
2023/10/14 07:20:30;;;;;;;;;0.67;0.67;;;;;26.72;40.39;101430.50;4808371;29;45427;-74
2023/10/14 07:22:59;;;;;;;;;1.00;1.00;;;;;27.06;40.96;101492.88;4808477;29;45436;-74
2023/10/14 07:25:32;;;;;;;;;0.00;0.00;;;;;27.05;40.53;101499.25;4808445;29;45398;-74
2023/10/14 07:27:59;;;;;;;;;1.00;1.00;;;;;27.02;40.41;101491.63;4808257;29;47375;-74
2023/10/14 07:30:27;;;;;;;;;1.33;1.00;;;;;27.05;41.00;101509.09;4808112;29;45441;-74
2023/10/14 07:32:54;;;;;;;;;1.00;1.00;;;;;27.03;41.07;101511.97;4808094;29;45346;-74
2023/10/14 07:35:20;;;;;;;;;1.33;0.00;;;;;27.03;41.15;101520.00;4808210;29;45705;-74
2023/10/14 07:37:48;;;;;;;;;0.00;0.00;;;;;27.03;40.62;101520.00;4808034;29;46357;-74
2023/10/14 07:40:24;;;;;;;;;4.00;0.00;;;;;27.03;40.87;101533.34;4808066;29;45414;-74
2023/10/14 07:42:52;;;;;;;;;2.00;0.67;;;;;26.87;40.69;101504.28;4808195;29;45403;-73
2023/10/14 07:45:21;;;;;;;;;1.33;0.00;;;;;27.02;40.39;101533.53;4808069;29;45307;-73
2023/10/14 07:47:48;;;;;;;;;1.00;1.00;;;;;27.01;40.68;101532.69;4807613;29;47025;-73
2023/10/14 07:50:13;;;;;;;;;4.00;2.00;;;;;26.93;37.64;101523.00;4807780;29;45486;-74
2023/10/14 07:52:39;;;;;;;;;9.67;3.33;;;;;26.80;35.72;101541.63;4806877;29;45717;-74
2023/10/14 07:55:05;;;;;;;;;2.00;2.00;;;;;26.50;35.10;101543.47;4807721;29;45526;-74
2023/10/14 07:57:31;;;;;;;;;2.00;1.67;;;;;26.20;35.03;101551.63;4807465;29;46153;-74
2023/10/14 08:00:00;;;;;;;;;4.00;2.67;;;;;25.92;34.52;101560.38;4806078;29;45490;-74
2023/10/14 08:02:29;;;;;;;;;1.67;1.67;;;;;25.65;34.82;101566.22;4807327;29;45629;-74
2023/10/14 08:04:54;;;;;;;;;5.00;5.00;;;;;25.42;34.72;101561.03;4819203;29;45416;-74
2023/10/14 08:07:20;;;;;;;;;5.33;4.00;;;;;25.24;34.36;101573.72;4825862;29;46882;-75
2023/10/14 08:09:47;;;;;;;;;2.67;2.67;;;;;25.00;34.67;101572.13;4815692;29;45232;-75
2023/10/14 08:12:14;;;;;;;;;3.67;1.67;;;;;24.81;34.75;101567.16;4807414;29;45292;-74
2023/10/14 08:14:40;;;;;;;;;4.00;1.67;;;;;24.56;35.09;101562.09;4807613;29;45330;-74
2023/10/14 08:17:11;;;;;;;;;3.33;3.33;;;;;24.47;34.97;101582.59;4806948;29;46306;-73
2023/10/14 08:19:38;;;;;;;;;7.00;4.33;;;;;24.33;34.95;101586.03;4807562;29;45481;-73
2023/10/14 08:22:05;;;;;;;;;4.00;4.00;;;;;24.17;34.87;101583.28;4807249;29;45405;-74
2023/10/14 08:24:30;;;;;;;;;3.00;3.00;;;;;24.06;35.20;101591.69;4807343;29;45398;-73
2023/10/14 08:26:56;;;;;;;;;6.67;4.67;;;;;23.94;35.08;101596.56;4806944;29;46654;-72
2023/10/14 08:29:21;;;;;;;;;6.00;4.00;;;;;23.81;35.15;101589.16;4807035;29;45366;-73
2023/10/14 08:31:51;;;;;;;;;8.67;4.00;;;;;23.61;35.47;101571.81;4806953;29;45815;-74
2023/10/14 08:34:17;;;;;;;;;4.00;1.00;;;;;23.67;35.74;101585.41;4806901;29;45389;-73
2023/10/14 08:36:43;;;;;;;;;4.67;1.00;;;;;23.74;35.91;101581.88;4806850;29;46143;-73
2023/10/14 08:39:08;;;;;;;;;4.00;2.67;;;;;23.93;36.44;101589.59;4807239;29;45402;-73
2023/10/14 08:41:36;;;;;;;;;2.00;2.00;;;;;24.02;36.71;101577.09;4807053;29;45296;-73
2023/10/14 08:44:08;;;;;;;;;2.00;2.00;;;;;24.23;36.52;101584.41;4806967;29;45396;-72
2023/10/14 08:46:36;;;;;;;;;3.33;2.33;;;;;24.29;36.45;101578.41;4806333;29;47228;-72
2023/10/14 08:49:03;;;;;;;;;4.67;2.00;;;;;24.54;36.86;101590.69;4806757;29;45396;-72
2023/10/14 08:51:30;;;;;;;;;1.00;1.00;;;;;24.66;36.67;101591.09;4806626;29;45312;-72
2023/10/14 08:53:56;;;;;;;;;1.33;1.33;;;;;24.80;36.65;101593.97;4806802;29;45593;-72
2023/10/14 08:56:22;;;;;;;;;0.67;0.00;;;;;24.76;36.75;101574.88;4807046;29;46375;-74
2023/10/14 08:58:48;;;;;;;;;3.00;1.33;;;;;25.03;36.89;101593.09;4806854;29;45322;-74
2023/10/14 09:01:16;;;;;;;;;5.00;2.33;;;;;25.09;36.95;101591.53;4806843;29;45688;-74
2023/10/14 09:03:49;;;;;;;;;3.00;0.67;;;;;25.24;36.78;101608.34;4808935;29;45473;-74
2023/10/14 09:06:15;;;;;;;;;2.00;1.67;;;;;25.34;36.78;101604.59;4825170;29;46088;-74
2023/10/14 09:08:42;;;;;;;;;1.33;1.00;;;;;25.43;36.66;101611.47;4823064;29;45404;-74
2023/10/14 09:11:24;;;;;;;;;2.33;0.67;;;;;25.52;37.05;101607.69;4806810;29;45383;-74
2023/10/14 09:14:00;;;;;;;;;2.00;1.00;;;;;25.60;36.68;101609.44;4807057;29;45585;-74
2023/10/14 09:16:26;;;;;;;;;2.00;1.33;;;;;25.62;36.75;101610.06;4806620;29;47014;-74
2023/10/14 09:19:00;;;;;;;;;0.00;0.00;;;;;25.73;36.70;101616.78;4806747;29;45758;-73
2023/10/14 09:21:26;;;;;;;;;1.33;1.33;;;;;25.81;37.07;101617.69;4806933;29;45466;-73
2023/10/14 09:23:51;;;;;;;;;2.67;1.00;;;;;25.86;37.02;101617.97;4806715;29;45357;-74
2023/10/14 09:26:18;;;;;;;;;0.00;0.00;;;;;25.92;37.15;101621.69;4806674;29;46855;-73
2023/10/14 09:28:45;;;;;;;;;2.00;1.00;;;;;25.96;37.15;101614.97;4805071;29;45352;-75
2023/10/14 09:31:11;;;;;;;;;1.00;0.67;;;;;26.01;37.27;101619.75;4806608;29;45382;-74
2023/10/14 09:33:46;;;;;;;;;0.33;0.33;;;;;26.07;37.61;101630.47;4806627;29;45387;-72
2023/10/14 09:36:18;;;;;;;;;1.00;1.00;;;;;26.11;37.07;101624.75;4809597;29;47257;-72
2023/10/14 09:38:48;;;;;;;;;1.33;0.33;;;;;26.14;37.03;101630.56;4824118;29;45318;-73
2023/10/14 09:41:15;;;;;;;;;1.67;1.00;;;;;26.18;37.26;101628.31;4824151;29;45354;-73
2023/10/14 09:43:46;;;;;;;;;2.00;2.00;;;;;26.09;37.39;101608.13;4823966;29;45325;-73
2023/10/14 09:46:15;;;;;;;;;0.67;0.67;;;;;26.25;37.71;101625.75;4824483;29;47259;-73
2023/10/14 09:48:43;;;;;;;;;2.00;2.00;;;;;26.26;37.79;101630.88;4824594;29;45420;-73
2023/10/14 09:51:12;;;;;;;;;0.00;0.00;;;;;26.33;37.39;101633.63;4824716;29;45310;-73
2023/10/14 09:53:37;;;;;;;;;0.00;0.00;;;;;26.22;37.10;101612.78;4824688;29;45176;-73
2023/10/14 09:56:04;;;;;;;;;0.33;0.33;;;;;26.37;37.75;101645.56;4824514;29;47116;-73
2023/10/14 09:58:34;;;;;;;;;0.00;0.00;;;;;26.41;37.28;101654.00;4824246;29;45413;-73
2023/10/14 10:01:01;;;;;;;;;2.33;1.00;;;;;26.43;37.74;101654.66;4824371;29;45393;-73
2023/10/14 10:03:31;;;;;;;;;2.33;1.00;;;;;26.43;37.24;101645.81;4824493;29;45317;-73
2023/10/14 10:06:15;;;;;;;;;1.00;1.00;;;;;26.52;37.66;101652.69;4824344;29;46178;-73
2023/10/14 10:08:58;;;;;;;;;3.00;0.00;;;;;26.48;37.54;101636.25;4822267;29;45425;-73
2023/10/14 10:11:24;;;;;;;;;0.00;0.00;;;;;26.35;37.20;101615.56;4806012;29;45367;-73
2023/10/14 10:13:52;;;;;;;;;1.00;1.00;;;;;26.67;37.55;101668.66;4805844;29;45434;-73
2023/10/14 10:16:21;;;;;;;;;0.00;0.00;;;;;26.71;36.99;101667.22;4807517;29;45323;-73
2023/10/14 10:18:52;;;;;;;;;0.00;0.00;;;;;26.76;37.34;101655.13;4808611;29;45347;-73
2023/10/14 10:21:19;;;;;;;;;0.33;0.33;;;;;26.79;37.14;101652.09;4809222;29;45455;-73
2023/10/14 10:23:49;;;;;;;;;0.00;0.00;;;;;26.83;37.67;101658.69;4809184;29;45476;-73
2023/10/14 10:26:17;;;;;;;;;3.00;1.00;;;;;26.74;37.38;101634.81;4809226;29;45355;-73
2023/10/14 10:28:45;;;;;;;;;0.00;0.00;;;;;26.78;37.58;101647.78;4808776;29;45479;-73
2023/10/14 10:31:15;;;;;;;;;2.67;1.00;;;;;26.80;37.92;101645.75;4809239;29;45240;-73
2023/10/14 10:33:53;;;;;;;;;1.00;1.00;;;;;26.89;37.95;101668.59;4809197;29;45540;-73
2023/10/14 10:36:22;;;;;;;;;2.33;1.00;;;;;26.94;37.62;101665.34;4808916;29;47227;-73
2023/10/14 10:38:48;;;;;;;;;0.00;0.00;;;;;26.94;38.08;101663.50;4809028;29;45364;-73
2023/10/14 10:41:23;;;;;;;;;0.33;0.00;;;;;26.95;38.00;101673.19;4808886;29;45311;-73
2023/10/14 10:43:49;;;;;;;;;2.00;2.00;;;;;26.91;37.92;101674.56;4809201;29;45279;-73
2023/10/14 10:46:30;;;;;;;;;0.00;0.00;;;;;26.96;37.55;101682.81;4807541;29;47158;-73
2023/10/14 10:48:55;;;;;;;;;1.00;1.00;;;;;26.96;37.41;101682.00;4808971;29;45394;-73
2023/10/14 10:51:21;;;;;;;;;0.00;0.00;;;;;26.83;37.75;101674.69;4822845;29;45346;-73
2023/10/14 10:53:49;;;;;;;;;1.33;1.00;;;;;26.93;37.72;101695.75;4809112;29;45359;-73
2023/10/14 10:56:15;;;;;;;;;0.00;0.00;;;;;26.96;37.44;101704.19;4808440;29;46066;-73
2023/10/14 10:58:41;;;;;;;;;0.67;0.67;;;;;26.96;37.30;101706.84;4808716;29;45500;-73
2023/10/14 11:01:08;;;;;;;;;0.00;0.00;;;;;26.84;37.98;101687.88;4808565;29;45413;-73
2023/10/14 11:03:34;;;;;;;;;2.00;0.00;;;;;26.89;37.47;101687.28;4810159;29;45319;-73
2023/10/14 11:06:00;;;;;;;;;1.00;1.00;;;;;26.90;37.89;101683.63;4827016;29;47238;-73
2023/10/14 11:08:25;;;;;;;;;0.00;0.00;;;;;26.97;37.96;101702.34;4826564;29;45297;-73
2023/10/14 11:10:51;;;;;;;;;2.00;1.00;;;;;26.96;37.61;101698.84;4808272;29;45318;-73
2023/10/14 11:13:16;;;;;;;;;0.00;0.00;;;;;26.98;37.93;101703.19;4808756;29;45381;-73
2023/10/14 11:15:44;;;;;;;;;2.33;0.00;;;;;26.99;37.92;101700.31;4808602;29;45980;-73
2023/10/14 11:18:10;;;;;;;;;0.67;0.67;;;;;26.94;37.95;101695.53;4808568;29;45360;-73
2023/10/14 11:20:41;;;;;;;;;1.00;0.00;;;;;26.97;37.70;101689.00;4808554;29;45316;-73
2023/10/14 11:23:11;;;;;;;;;0.67;0.00;;;;;27.01;38.44;101700.13;4808526;29;45570;-73
2023/10/14 11:25:41;;;;;;;;;2.00;0.00;;;;;26.99;38.31;101704.81;4807923;29;47308;-73
2023/10/14 11:28:10;;;;;;;;;0.00;0.00;;;;;26.89;38.32;101679.28;4807877;29;45270;-73
2023/10/14 11:30:41;;;;;;;;;1.00;0.33;;;;;27.02;37.68;101694.56;4808403;29;45359;-73
2023/10/14 11:33:09;;;;;;;;;3.00;1.00;;;;;26.94;37.92;101681.38;4808427;29;45314;-73
2023/10/14 11:35:36;;;;;;;;;1.00;1.00;;;;;27.02;38.19;101696.41;4808084;29;46343;-73
2023/10/14 11:38:06;;;;;;;;;0.67;0.33;;;;;27.05;37.81;101715.56;4808149;29;45371;-73
2023/10/14 11:40:33;;;;;;;;;0.00;0.00;;;;;27.05;37.75;101722.75;4807892;29;45388;-73
2023/10/14 11:42:58;;;;;;;;;2.00;1.00;;;;;26.99;38.38;101724.34;4808309;29;45379;-73
2023/10/14 11:45:24;;;;;;;;;2.00;0.00;;;;;27.05;37.77;101739.59;4808013;29;46306;-73
2023/10/14 11:47:51;;;;;;;;;0.00;0.00;;;;;27.06;38.47;101735.09;4808115;29;45311;-73
2023/10/14 11:50:17;;;;;;;;;0.67;0.67;;;;;26.96;37.85;101714.88;4808199;29;45412;-74
2023/10/14 11:52:47;;;;;;;;;0.00;0.00;;;;;27.06;38.51;101735.09;4808021;29;45448;-73
2023/10/14 11:55:16;;;;;;;;;0.00;0.00;;;;;27.05;38.61;101723.56;4807569;29;46392;-73
2023/10/14 11:57:45;;;;;;;;;0.67;0.67;;;;;27.01;38.70;101722.28;4807776;29;45384;-73
2023/10/14 12:00:12;;;;;;;;;0.00;0.00;;;;;27.05;37.89;101720.06;4807770;29;45324;-73
2023/10/14 12:02:41;;;;;;;;;1.00;1.00;;;;;26.95;38.68;101707.06;4807910;29;45329;-73
2023/10/14 12:05:08;;;;;;;;;0.00;0.00;;;;;27.06;38.55;101722.53;4820979;29;46059;-73
2023/10/14 12:07:33;;;;;;;;;1.67;0.00;;;;;26.99;38.59;101713.66;4826126;29;45401;-73
2023/10/14 12:10:00;;;;;;;;;1.00;1.00;;;;;27.06;38.79;101714.53;4813816;29;45371;-73
2023/10/14 12:12:26;;;;;;;;;0.00;0.00;;;;;27.04;38.49;101713.06;4807868;29;45468;-73